createdAt,value
2023-04-18T00:00:12.104Z,7.94
2023-04-18T00:01:15.033Z,7.94
2023-04-18T00:02:18.082Z,8.00
2023-04-18T00:03:54.445Z,8.00
2023-04-18T00:04:59.776Z,8.00
2023-04-18T00:06:03.530Z,8.00
2023-04-18T00:07:38.122Z,8.00
2023-04-18T00:08:41.124Z,7.94
2023-04-18T00:09:44.237Z,7.94
2023-04-18T00:11:18.873Z,7.88
2023-04-18T00:12:21.772Z,7.88
2023-04-18T00:13:24.873Z,7.88
2023-04-18T00:14:59.706Z,7.81
2023-04-18T00:16:02.670Z,7.81
2023-04-18T00:17:05.943Z,7.81
2023-04-18T00:18:41.166Z,7.75
2023-04-18T00:19:44.293Z,7.75
2023-04-18T00:20:47.031Z,7.75
2023-04-18T00:22:21.504Z,7.75
2023-04-18T00:23:24.299Z,7.75
2023-04-18T00:24:26.949Z,7.75
2023-04-18T00:26:01.474Z,7.69
2023-04-18T00:27:04.418Z,7.69
2023-04-18T00:28:07.347Z,7.63
2023-04-18T00:29:42.014Z,7.56
2023-04-18T00:30:45.095Z,7.56
2023-04-18T00:31:48.653Z,7.63
2023-04-18T00:33:23.296Z,7.56
2023-04-18T00:34:26.062Z,7.56
2023-04-18T00:35:29.037Z,7.63
2023-04-18T00:37:03.593Z,7.56
2023-04-18T00:38:06.446Z,7.50
2023-04-18T00:39:09.251Z,7.44
2023-04-18T00:40:43.996Z,7.44
2023-04-18T00:41:46.981Z,7.38
2023-04-18T00:42:49.839Z,7.38
2023-04-18T00:44:24.715Z,7.38
2023-04-18T00:45:27.595Z,7.31
2023-04-18T00:46:30.772Z,7.31
2023-04-18T00:48:05.912Z,7.31
2023-04-18T00:49:09.047Z,7.38
2023-04-18T00:50:11.904Z,7.38
2023-04-18T00:51:46.478Z,7.38
2023-04-18T00:52:49.267Z,7.31
2023-04-18T00:53:52.021Z,7.31
2023-04-18T00:55:26.948Z,7.31
2023-04-18T00:56:29.828Z,7.31
2023-04-18T00:57:32.620Z,7.31
2023-04-18T00:59:07.304Z,7.25
2023-04-18T01:00:12.602Z,7.25
2023-04-18T01:01:15.596Z,7.25
2023-04-18T01:02:19.116Z,7.25
2023-04-18T01:03:55.506Z,7.25
2023-04-18T01:05:00.744Z,7.19
2023-04-18T01:06:03.894Z,7.19
2023-04-18T01:07:38.506Z,7.13
2023-04-18T01:08:41.683Z,7.13
2023-04-18T01:09:44.625Z,7.06
2023-04-18T01:11:19.093Z,7.00
2023-04-18T01:12:21.749Z,7.00
2023-04-18T01:13:24.487Z,6.94
2023-04-18T01:14:59.010Z,6.94
2023-04-18T01:16:01.992Z,6.94
2023-04-18T01:17:05.387Z,7.00
2023-04-18T01:18:40.148Z,7.00
2023-04-18T01:19:43.051Z,6.94
2023-04-18T01:20:46.168Z,6.94
2023-04-18T01:22:20.906Z,6.94
2023-04-18T01:23:23.766Z,6.94
2023-04-18T01:24:26.548Z,6.94
2023-04-18T01:26:01.063Z,6.94
2023-04-18T01:27:03.734Z,6.94
2023-04-18T01:28:06.368Z,6.94
2023-04-18T01:29:40.767Z,6.88
2023-04-18T01:30:43.677Z,6.88
2023-04-18T01:31:46.758Z,6.88
2023-04-18T01:33:21.434Z,6.88
2023-04-18T01:34:24.316Z,6.88
2023-04-18T01:35:27.270Z,6.88
2023-04-18T01:37:01.958Z,6.88
2023-04-18T01:38:04.928Z,6.81
2023-04-18T01:39:07.816Z,6.81
2023-04-18T01:40:42.636Z,6.81
2023-04-18T01:41:45.450Z,6.81
2023-04-18T01:42:48.413Z,6.81
2023-04-18T01:44:22.965Z,6.88
2023-04-18T01:45:25.758Z,6.88
2023-04-18T01:46:28.602Z,6.88
2023-04-18T01:48:03.825Z,6.81
2023-04-18T01:49:06.661Z,6.81
2023-04-18T01:50:09.550Z,6.81
2023-04-18T01:51:44.307Z,6.75
2023-04-18T01:52:47.207Z,6.75
2023-04-18T01:53:50.026Z,6.69
2023-04-18T01:55:25.215Z,6.69
2023-04-18T01:56:28.176Z,6.69
2023-04-18T01:57:31.100Z,6.69
2023-04-18T01:59:05.586Z,6.69
2023-04-18T02:00:12.240Z,6.75
2023-04-18T02:01:15.070Z,6.69
2023-04-18T02:02:18.703Z,6.69
2023-04-18T02:03:55.378Z,6.69
2023-04-18T02:04:59.051Z,6.63
2023-04-18T02:06:01.864Z,6.63
2023-04-18T02:07:36.920Z,6.63
2023-04-18T02:08:39.778Z,6.63
2023-04-18T02:09:42.738Z,6.56
2023-04-18T02:11:17.600Z,6.56
2023-04-18T02:12:20.495Z,6.56
2023-04-18T02:13:23.372Z,6.56
2023-04-18T02:14:58.078Z,6.56
2023-04-18T02:16:00.914Z,6.56
2023-04-18T02:17:04.243Z,6.56
2023-04-18T02:18:38.771Z,6.56
2023-04-18T02:19:41.644Z,6.56
2023-04-18T02:20:44.438Z,6.50
2023-04-18T02:22:18.991Z,6.50
2023-04-18T02:23:21.920Z,6.50
2023-04-18T02:24:24.976Z,6.50
2023-04-18T02:25:59.722Z,6.44
2023-04-18T02:27:02.651Z,6.44
2023-04-18T02:28:05.450Z,6.44
2023-04-18T02:29:40.341Z,6.44
2023-04-18T02:30:43.241Z,6.44
2023-04-18T02:31:46.075Z,6.44
2023-04-18T02:33:21.047Z,6.44
2023-04-18T02:34:23.815Z,6.38
2023-04-18T02:35:26.674Z,6.38
2023-04-18T02:37:01.185Z,6.38
2023-04-18T02:38:03.980Z,6.38
2023-04-18T02:39:06.733Z,6.31
2023-04-18T02:40:41.392Z,6.25
2023-04-18T02:41:44.329Z,6.19
2023-04-18T02:42:47.312Z,6.19
2023-04-18T02:44:22.411Z,6.13
2023-04-18T02:45:25.236Z,6.13
2023-04-18T02:46:28.446Z,6.06
2023-04-18T02:48:03.195Z,6.13
2023-04-18T02:49:06.539Z,6.13
2023-04-18T02:50:09.475Z,6.13
2023-04-18T02:51:44.203Z,6.13
2023-04-18T02:52:47.253Z,6.13
2023-04-18T02:53:50.163Z,6.13
2023-04-18T02:55:25.452Z,6.19
2023-04-18T02:56:28.231Z,6.19
2023-04-18T02:57:31.109Z,6.19
2023-04-18T02:59:05.845Z,6.25
2023-04-18T03:00:11.955Z,6.25
2023-04-18T03:01:14.887Z,6.31
2023-04-18T03:02:18.249Z,6.31
2023-04-18T03:03:54.288Z,6.31
2023-04-18T03:04:57.522Z,6.31
2023-04-18T03:06:00.725Z,6.31
2023-04-18T03:07:35.406Z,6.31
2023-04-18T03:08:38.163Z,6.25
2023-04-18T03:09:40.873Z,6.31
2023-04-18T03:11:15.426Z,6.25
2023-04-18T03:12:18.282Z,6.25
2023-04-18T03:13:21.134Z,6.25
2023-04-18T03:14:55.883Z,6.25
2023-04-18T03:15:58.952Z,6.25
2023-04-18T03:17:02.492Z,6.25
2023-04-18T03:18:37.526Z,6.31
2023-04-18T03:19:40.485Z,6.25
2023-04-18T03:20:43.431Z,6.31
2023-04-18T03:22:18.028Z,6.31
2023-04-18T03:23:20.864Z,6.31
2023-04-18T03:24:23.597Z,6.31
2023-04-18T03:25:59.302Z,6.31
2023-04-18T03:27:02.070Z,6.31
2023-04-18T03:28:04.900Z,6.38
2023-04-18T03:29:39.270Z,6.38
2023-04-18T03:30:42.154Z,6.38
2023-04-18T03:31:45.704Z,6.38
2023-04-18T03:33:20.581Z,6.38
2023-04-18T03:34:23.524Z,6.38
2023-04-18T03:35:26.383Z,6.38
2023-04-18T03:37:01.076Z,6.38
2023-04-18T03:38:04.083Z,6.38
2023-04-18T03:39:06.980Z,6.38
2023-04-18T03:40:41.336Z,6.38
2023-04-18T03:41:44.168Z,6.38
2023-04-18T03:42:46.947Z,6.38
2023-04-18T03:44:21.493Z,6.44
2023-04-18T03:45:24.265Z,6.38
2023-04-18T03:46:27.226Z,6.38
2023-04-18T03:48:02.470Z,6.38
2023-04-18T03:49:05.403Z,6.38
2023-04-18T03:50:08.626Z,6.38
2023-04-18T03:51:43.536Z,6.44
2023-04-18T03:52:46.401Z,6.44
2023-04-18T03:53:49.424Z,6.44
2023-04-18T03:55:24.371Z,6.44
2023-04-18T03:56:27.128Z,6.44
2023-04-18T03:57:30.022Z,6.44
2023-04-18T03:59:04.762Z,6.38
2023-04-18T04:00:12.391Z,6.38
2023-04-18T04:01:15.361Z,6.38
2023-04-18T04:02:18.580Z,6.31
2023-04-18T04:03:54.978Z,6.31
2023-04-18T04:04:59.820Z,6.31
2023-04-18T04:05:43.281Z,6.31
2023-04-18T04:06:46.180Z,6.31
2023-04-18T04:07:49.041Z,6.31
2023-04-18T04:09:23.695Z,6.31
2023-04-18T04:10:26.694Z,6.25
2023-04-18T04:11:29.606Z,6.25
2023-04-18T04:13:04.280Z,6.31
2023-04-18T04:14:07.038Z,6.31
2023-04-18T04:15:10.807Z,6.31
2023-04-18T04:16:45.958Z,6.31
2023-04-18T04:17:48.969Z,6.38
2023-04-18T04:18:52.178Z,6.38
2023-04-18T04:20:26.869Z,6.31
2023-04-18T04:21:29.715Z,6.38
2023-04-18T04:22:32.487Z,6.38
2023-04-18T04:24:07.305Z,6.38
2023-04-18T04:25:10.852Z,6.38
2023-04-18T04:26:13.656Z,6.44
2023-04-18T04:27:48.228Z,6.44
2023-04-18T04:28:51.078Z,6.44
2023-04-18T04:29:53.898Z,6.44
2023-04-18T04:31:31.260Z,6.44
2023-04-18T04:32:34.576Z,6.44
2023-04-18T04:33:37.812Z,6.44
2023-04-18T04:35:12.548Z,6.44
2023-04-18T04:36:18.391Z,6.44
2023-04-18T04:37:21.808Z,6.44
2023-04-18T04:38:56.473Z,6.44
2023-04-18T04:39:59.412Z,6.44
2023-04-18T04:41:02.243Z,6.50
2023-04-18T04:42:36.825Z,6.50
2023-04-18T04:43:39.914Z,6.44
2023-04-18T04:44:43.017Z,6.44
2023-04-18T04:46:18.485Z,6.44
2023-04-18T04:47:21.694Z,6.44
2023-04-18T04:48:24.807Z,6.44
2023-04-18T04:49:59.458Z,6.44
2023-04-18T04:51:02.397Z,6.44
2023-04-18T04:52:05.256Z,6.44
2023-04-18T04:53:39.735Z,6.44
2023-04-18T04:54:42.541Z,6.44
2023-04-18T04:55:45.422Z,6.44
2023-04-18T04:57:19.845Z,6.50
2023-04-18T04:58:22.530Z,6.50
2023-04-18T04:59:25.237Z,6.44
2023-04-18T05:01:15.268Z,6.44
2023-04-18T05:02:18.815Z,6.44
2023-04-18T05:03:55.756Z,6.44
2023-04-18T05:05:01.349Z,6.44
2023-04-18T05:06:04.287Z,6.44
2023-04-18T05:07:38.992Z,6.44
2023-04-18T05:08:42.066Z,6.44
2023-04-18T05:09:44.768Z,6.44
2023-04-18T05:11:19.173Z,6.44
2023-04-18T05:12:21.881Z,6.44
2023-04-18T05:13:24.687Z,6.38
2023-04-18T05:14:59.239Z,6.44
2023-04-18T05:16:01.991Z,6.38
2023-04-18T05:17:05.139Z,6.38
2023-04-18T05:18:40.143Z,6.38
2023-04-18T05:19:43.362Z,6.38
2023-04-18T05:20:46.405Z,6.38
2023-04-18T05:22:21.021Z,6.44
2023-04-18T05:23:23.986Z,6.44
2023-04-18T05:24:27.074Z,6.44
2023-04-18T05:26:01.821Z,6.44
2023-04-18T05:27:04.619Z,6.44
2023-04-18T05:28:09.877Z,6.44
2023-04-18T05:29:44.538Z,6.44
2023-04-18T05:30:47.275Z,6.50
2023-04-18T05:31:50.270Z,6.44
2023-04-18T05:33:24.958Z,6.50
2023-04-18T05:34:27.811Z,6.50
2023-04-18T05:35:30.676Z,6.50
2023-04-18T05:37:05.281Z,6.50
2023-04-18T05:38:08.146Z,6.50
2023-04-18T05:39:11.236Z,6.50
2023-04-18T05:40:45.992Z,6.56
2023-04-18T05:41:49.022Z,6.56
2023-04-18T05:42:51.871Z,6.56
2023-04-18T05:44:40.447Z,6.56
2023-04-18T05:45:43.243Z,6.56
2023-04-18T05:46:49.430Z,6.56
2023-04-18T05:48:23.892Z,6.56
2023-04-18T05:49:26.607Z,6.56
2023-04-18T05:50:29.355Z,6.56
2023-04-18T05:52:04.027Z,6.63
2023-04-18T05:53:06.911Z,6.63
2023-04-18T05:54:09.762Z,6.63
2023-04-18T05:55:45.030Z,6.63
2023-04-18T05:56:47.911Z,6.69
2023-04-18T05:57:51.036Z,6.69
2023-04-18T05:59:25.759Z,6.69
2023-04-18T06:01:14.530Z,6.75
2023-04-18T06:02:17.530Z,6.75
2023-04-18T06:03:53.974Z,6.75
2023-04-18T06:04:58.887Z,6.75
2023-04-18T06:06:04.062Z,6.75
2023-04-18T06:07:38.727Z,6.81
2023-04-18T06:08:41.622Z,6.81
2023-04-18T06:09:44.550Z,6.88
2023-04-18T06:11:19.265Z,6.94
2023-04-18T06:12:22.156Z,6.94
2023-04-18T06:13:25.123Z,7.00
2023-04-18T06:14:59.692Z,7.06
2023-04-18T06:16:02.496Z,7.06
2023-04-18T06:17:05.775Z,7.13
2023-04-18T06:18:40.449Z,7.13
2023-04-18T06:19:47.092Z,7.13
2023-04-18T06:20:50.337Z,7.13
2023-04-18T06:22:25.000Z,7.13
2023-04-18T06:23:27.755Z,7.13
2023-04-18T06:24:31.333Z,7.13
2023-04-18T06:26:06.341Z,7.13
2023-04-18T06:27:14.923Z,7.13
2023-04-18T06:28:29.446Z,7.13
2023-04-18T06:30:04.139Z,7.13
2023-04-18T06:31:07.051Z,7.13
2023-04-18T06:32:10.397Z,7.13
2023-04-18T06:33:45.347Z,7.19
2023-04-18T06:34:48.640Z,7.19
2023-04-18T06:35:51.613Z,7.19
2023-04-18T06:37:26.074Z,7.25
2023-04-18T06:38:28.839Z,7.25
2023-04-18T06:39:31.698Z,7.31
2023-04-18T06:41:06.228Z,7.38
2023-04-18T06:42:09.036Z,7.44
2023-04-18T06:43:14.106Z,7.50
2023-04-18T06:45:08.607Z,7.63
2023-04-18T06:46:11.973Z,7.69
2023-04-18T06:47:15.456Z,7.75
2023-04-18T06:48:51.549Z,7.81
2023-04-18T06:50:01.120Z,7.88
2023-04-18T06:51:04.115Z,7.88
2023-04-18T06:52:38.784Z,7.94
2023-04-18T06:53:41.645Z,7.94
2023-04-18T06:54:44.529Z,7.94
2023-04-18T06:56:19.256Z,7.88
2023-04-18T06:57:22.709Z,7.88
2023-04-18T06:58:25.789Z,7.81
2023-04-18T07:00:00.373Z,7.75
2023-04-18T07:00:11.769Z,7.75
2023-04-18T07:01:15.073Z,7.75
2023-04-18T07:02:18.423Z,7.75
2023-04-18T07:03:54.340Z,7.75
2023-04-18T07:04:58.723Z,7.81
2023-04-18T07:06:01.602Z,7.88
2023-04-18T07:07:36.204Z,8.00
2023-04-18T07:08:39.202Z,8.06
2023-04-18T07:09:44.390Z,8.06
2023-04-18T07:11:18.944Z,8.19
2023-04-18T07:12:21.821Z,8.25
2023-04-18T07:13:24.703Z,8.25
2023-04-18T07:14:59.248Z,8.31
2023-04-18T07:16:02.117Z,8.31
2023-04-18T07:17:05.287Z,8.38
2023-04-18T07:18:41.133Z,8.50
2023-04-18T07:19:43.920Z,8.50
2023-04-18T07:20:49.143Z,8.50
2023-04-18T07:22:23.764Z,8.50
2023-04-18T07:23:26.571Z,8.56
2023-04-18T07:24:29.525Z,8.56
2023-04-18T07:26:04.331Z,8.50
2023-04-18T07:27:07.120Z,8.56
2023-04-18T07:28:09.902Z,8.56
2023-04-18T07:29:44.480Z,8.63
2023-04-18T07:30:47.396Z,8.63
2023-04-18T07:31:50.796Z,8.69
2023-04-18T07:33:26.855Z,8.69
2023-04-18T07:34:29.975Z,8.69
2023-04-18T07:35:32.894Z,8.75
2023-04-18T07:37:07.660Z,8.75
2023-04-18T07:38:12.478Z,8.81
2023-04-18T07:39:15.371Z,8.94
2023-04-18T07:40:50.225Z,9.06
2023-04-18T07:41:53.272Z,9.13
2023-04-18T07:42:56.216Z,9.13
2023-04-18T07:44:33.180Z,9.19
2023-04-18T07:45:35.929Z,9.19
2023-04-18T07:46:39.158Z,9.19
2023-04-18T07:48:14.035Z,9.13
2023-04-18T07:49:17.156Z,9.13
2023-04-18T07:50:19.920Z,9.13
2023-04-18T07:51:54.560Z,9.13
2023-04-18T07:52:57.459Z,9.19
2023-04-18T07:54:00.360Z,9.13
2023-04-18T07:55:34.994Z,9.06
2023-04-18T07:56:38.077Z,9.06
2023-04-18T07:57:40.948Z,9.00
2023-04-18T07:59:17.063Z,9.00
2023-04-18T08:01:15.035Z,8.94
2023-04-18T08:02:18.183Z,8.88
2023-04-18T08:03:55.166Z,8.88
2023-04-18T08:05:01.249Z,8.81
2023-04-18T08:06:05.042Z,8.81
2023-04-18T08:07:39.648Z,8.81
2023-04-18T08:08:42.667Z,8.81
2023-04-18T08:09:45.697Z,8.88
2023-04-18T08:11:20.901Z,8.94
2023-04-18T08:12:24.057Z,8.94
2023-04-18T08:13:27.382Z,8.94
2023-04-18T08:15:02.418Z,9.00
2023-04-18T08:16:05.325Z,9.06
2023-04-18T08:17:09.668Z,9.06
2023-04-18T08:18:44.558Z,9.19
2023-04-18T08:19:47.824Z,9.25
2023-04-18T08:20:50.621Z,9.25
2023-04-18T08:22:25.178Z,9.31
2023-04-18T08:23:53.981Z,9.25
2023-04-18T08:25:04.488Z,9.25
2023-04-18T08:26:40.089Z,9.31
2023-04-18T08:27:42.999Z,9.31
2023-04-18T08:28:46.638Z,9.31
2023-04-18T08:30:21.986Z,9.38
2023-04-18T08:31:25.013Z,9.38
2023-04-18T08:32:28.664Z,9.38
2023-04-18T08:34:05.092Z,9.38
2023-04-18T08:35:08.097Z,9.38
2023-04-18T08:36:10.914Z,9.38
2023-04-18T08:37:45.353Z,9.31
2023-04-18T08:38:48.163Z,9.31
2023-04-18T08:39:51.194Z,9.38
2023-04-18T08:41:25.746Z,9.38
2023-04-18T08:42:28.567Z,9.38
2023-04-18T08:43:31.718Z,9.44
2023-04-18T08:45:09.513Z,9.50
2023-04-18T08:46:12.782Z,9.50
2023-04-18T08:47:15.830Z,9.50
2023-04-18T08:48:50.800Z,9.56
2023-04-18T08:49:55.041Z,9.63
2023-04-18T08:50:58.209Z,9.63
2023-04-18T08:52:32.737Z,9.63
2023-04-18T08:53:35.536Z,9.63
2023-04-18T08:54:38.616Z,9.56
2023-04-18T08:56:13.352Z,9.56
2023-04-18T08:57:16.212Z,9.63
2023-04-18T08:58:18.987Z,9.63
2023-04-18T08:59:54.005Z,9.69
2023-04-18T09:00:12.008Z,9.69
2023-04-18T09:01:14.916Z,9.69
2023-04-18T09:02:18.167Z,9.75
2023-04-18T09:03:53.971Z,9.88
2023-04-18T09:04:57.275Z,9.88
2023-04-18T09:06:00.327Z,10.00
2023-04-18T09:07:35.300Z,10.00
2023-04-18T09:08:38.318Z,10.00
2023-04-18T09:09:41.176Z,9.94
2023-04-18T09:11:15.857Z,10.00
2023-04-18T09:12:18.694Z,9.94
2023-04-18T09:13:23.038Z,9.94
2023-04-18T09:14:59.219Z,9.88
2023-04-18T09:16:02.340Z,9.94
2023-04-18T09:17:05.834Z,9.94
2023-04-18T09:18:40.974Z,9.94
2023-04-18T09:19:48.192Z,10.06
2023-04-18T09:20:51.566Z,10.13
2023-04-18T09:22:26.472Z,10.13
2023-04-18T09:23:31.668Z,10.19
2023-04-18T09:24:34.721Z,10.19
2023-04-18T09:26:09.240Z,10.25
2023-04-18T09:27:12.167Z,10.25
2023-04-18T09:28:14.985Z,10.25
2023-04-18T09:29:49.731Z,10.25
2023-04-18T09:30:55.364Z,10.25
2023-04-18T09:31:58.641Z,10.25
2023-04-18T09:33:34.523Z,10.25
2023-04-18T09:34:37.634Z,10.25
2023-04-18T09:35:43.277Z,10.25
2023-04-18T09:37:18.019Z,10.25
2023-04-18T09:38:21.096Z,10.19
2023-04-18T09:39:23.943Z,10.19
2023-04-18T09:40:58.720Z,10.25
2023-04-18T09:42:02.150Z,10.25
2023-04-18T09:43:08.766Z,10.38
2023-04-18T09:44:43.372Z,10.44
2023-04-18T09:45:48.530Z,10.56
2023-04-18T09:46:51.691Z,10.56
2023-04-18T09:48:26.380Z,10.63
2023-04-18T09:49:29.292Z,10.63
2023-04-18T09:50:32.150Z,10.69
2023-04-18T09:52:06.828Z,10.63
2023-04-18T09:53:09.678Z,10.63
2023-04-18T09:54:13.402Z,10.63
2023-04-18T09:55:48.397Z,10.69
2023-04-18T09:56:54.396Z,10.69
2023-04-18T09:57:57.344Z,10.69
2023-04-18T09:59:32.007Z,10.81
2023-04-18T10:01:14.462Z,10.88
2023-04-18T10:02:17.697Z,10.88
2023-04-18T10:03:53.503Z,10.88
2023-04-18T10:04:57.312Z,10.88
2023-04-18T10:06:02.028Z,10.94
2023-04-18T10:07:36.943Z,10.94
2023-04-18T10:08:40.005Z,10.94
2023-04-18T10:09:42.922Z,11.00
2023-04-18T10:11:19.239Z,11.13
2023-04-18T10:12:23.080Z,11.19
2023-04-18T10:13:26.247Z,11.25
2023-04-18T10:15:00.982Z,11.19
2023-04-18T10:16:03.868Z,11.25
2023-04-18T10:17:09.721Z,11.25
2023-04-18T10:19:03.264Z,11.31
2023-04-18T10:20:06.593Z,11.31
2023-04-18T10:21:10.225Z,11.38
2023-04-18T10:22:44.629Z,11.38
2023-04-18T10:23:47.421Z,11.38
2023-04-18T10:24:50.599Z,11.38
2023-04-18T10:26:25.539Z,11.38
2023-04-18T10:27:28.748Z,11.31
2023-04-18T10:28:31.721Z,11.25
2023-04-18T10:30:09.712Z,11.25
2023-04-18T10:31:12.740Z,11.19
2023-04-18T10:32:15.834Z,11.19
2023-04-18T10:34:06.335Z,11.19
2023-04-18T10:35:09.285Z,11.19
2023-04-18T10:36:14.554Z,11.19
2023-04-18T10:37:49.252Z,11.19
2023-04-18T10:38:52.077Z,11.19
2023-04-18T10:39:55.294Z,11.19
2023-04-18T10:41:30.114Z,11.19
2023-04-18T10:42:34.960Z,11.25
2023-04-18T10:43:38.002Z,11.31
2023-04-18T10:45:15.019Z,11.31
2023-04-18T10:46:31.109Z,11.31
2023-04-18T10:47:35.810Z,11.38
2023-04-18T10:49:13.752Z,11.44
2023-04-18T10:50:20.084Z,11.44
2023-04-18T10:51:22.874Z,11.56
2023-04-18T10:52:57.580Z,11.63
2023-04-18T10:54:00.395Z,11.69
2023-04-18T10:55:03.491Z,12.00
2023-04-18T10:56:37.996Z,12.19
2023-04-18T10:57:40.914Z,12.44
2023-04-18T10:58:43.792Z,12.56
2023-04-18T11:00:11.513Z,12.69
2023-04-18T11:01:14.926Z,12.75
2023-04-18T11:02:20.637Z,12.69
2023-04-18T11:03:57.175Z,12.63
2023-04-18T11:05:01.896Z,12.56
2023-04-18T11:06:04.867Z,12.50
2023-04-18T11:07:41.542Z,12.56
2023-04-18T11:08:44.555Z,12.63
2023-04-18T11:09:47.350Z,12.75
2023-04-18T11:11:21.981Z,12.88
2023-04-18T11:12:24.904Z,13.00
2023-04-18T11:13:28.364Z,13.19
2023-04-18T11:15:03.063Z,13.44
2023-04-18T11:16:06.209Z,13.56
2023-04-18T11:17:09.599Z,13.63
2023-04-18T11:18:44.676Z,13.69
2023-04-18T11:19:47.617Z,13.63
2023-04-18T11:20:50.567Z,13.50
2023-04-18T11:22:25.301Z,13.25
2023-04-18T11:23:28.216Z,13.13
2023-04-18T11:24:31.061Z,13.06
2023-04-18T11:26:05.630Z,12.94
2023-04-18T11:27:09.995Z,12.94
2023-04-18T11:28:13.016Z,12.94
2023-04-18T11:29:47.569Z,13.00
2023-04-18T11:30:50.450Z,12.94
2023-04-18T11:31:55.838Z,12.94
2023-04-18T11:33:32.982Z,12.88
2023-04-18T11:34:36.001Z,12.88
2023-04-18T11:35:39.053Z,12.81
2023-04-18T11:37:13.751Z,12.75
2023-04-18T11:38:16.667Z,12.69
2023-04-18T11:39:21.752Z,12.63
2023-04-18T11:40:56.340Z,12.50
2023-04-18T11:41:59.268Z,12.38
2023-04-18T11:43:02.117Z,12.31
2023-04-18T11:44:36.745Z,12.25
2023-04-18T11:45:39.603Z,12.25
2023-04-18T11:46:42.820Z,12.25
2023-04-18T11:48:17.921Z,12.25
2023-04-18T11:49:20.798Z,12.25
2023-04-18T11:50:23.802Z,12.25
2023-04-18T11:51:58.637Z,12.19
2023-04-18T11:53:01.630Z,12.13
2023-04-18T11:54:04.570Z,12.13
2023-04-18T11:55:39.508Z,12.06
2023-04-18T11:56:42.669Z,12.00
2023-04-18T11:57:45.430Z,12.00
2023-04-18T11:59:19.933Z,12.06
2023-04-18T12:01:14.023Z,12.13
2023-04-18T12:02:17.317Z,12.13
2023-04-18T12:03:53.805Z,12.19
2023-04-18T12:04:59.631Z,12.19
2023-04-18T12:06:05.624Z,12.31
2023-04-18T12:07:41.156Z,12.38
2023-04-18T12:08:44.073Z,12.50
2023-04-18T12:09:46.845Z,12.56
2023-04-18T12:11:21.674Z,12.69
2023-04-18T12:12:24.577Z,12.75
2023-04-18T12:13:27.357Z,12.75
2023-04-18T12:15:01.895Z,12.69
2023-04-18T12:16:04.742Z,12.69
2023-04-18T12:17:07.825Z,12.63
2023-04-18T12:18:42.508Z,12.50
2023-04-18T12:19:45.981Z,12.44
2023-04-18T12:20:50.008Z,12.44
2023-04-18T12:22:24.793Z,12.31
2023-04-18T12:23:27.716Z,12.25
2023-04-18T12:24:30.798Z,12.25
2023-04-18T12:26:05.625Z,12.25
2023-04-18T12:27:08.555Z,12.31
2023-04-18T12:28:11.449Z,12.38
2023-04-18T12:29:46.183Z,12.44
2023-04-18T12:30:49.116Z,12.44
2023-04-18T12:31:52.782Z,12.50
2023-04-18T12:33:27.675Z,12.56
2023-04-18T12:34:30.591Z,12.69
2023-04-18T12:35:33.574Z,12.81
2023-04-18T12:37:08.108Z,13.06
2023-04-18T12:38:11.064Z,13.19
2023-04-18T12:39:13.991Z,13.44
2023-04-18T12:40:48.821Z,13.44
2023-04-18T12:41:51.736Z,13.38
2023-04-18T12:42:54.753Z,13.19
2023-04-18T12:44:32.855Z,13.06
2023-04-18T12:45:38.655Z,13.00
2023-04-18T12:46:41.651Z,12.94
2023-04-18T12:48:16.864Z,13.00
2023-04-18T12:49:19.564Z,13.06
2023-04-18T12:50:22.381Z,13.13
2023-04-18T12:51:56.968Z,13.19
2023-04-18T12:52:59.929Z,13.31
2023-04-18T12:54:02.624Z,13.38
2023-04-18T12:55:37.758Z,13.50
2023-04-18T12:56:40.705Z,13.56
2023-04-18T12:57:43.645Z,13.63
2023-04-18T12:59:18.393Z,13.69
2023-04-18T13:01:15.687Z,13.69
2023-04-18T13:02:19.039Z,13.69
2023-04-18T13:04:08.405Z,13.88
2023-04-18T13:05:17.269Z,14.06
2023-04-18T13:06:24.946Z,14.25
2023-04-18T13:08:15.356Z,14.25
2023-04-18T13:09:20.071Z,14.25
2023-04-18T13:10:22.864Z,14.19
2023-04-18T13:11:57.624Z,14.06
2023-04-18T13:13:00.521Z,14.19
2023-04-18T13:14:03.618Z,14.19
2023-04-18T13:15:38.753Z,14.19
2023-04-18T13:16:43.782Z,14.13
2023-04-18T13:17:47.890Z,14.06
2023-04-18T13:19:23.116Z,14.19
2023-04-18T13:20:25.995Z,14.31
2023-04-18T13:21:28.976Z,14.50
2023-04-18T13:23:06.169Z,14.63
2023-04-18T13:24:09.029Z,14.75
2023-04-18T13:25:11.830Z,14.81
2023-04-18T13:26:46.373Z,14.81
2023-04-18T13:27:49.154Z,14.69
2023-04-18T13:28:52.045Z,14.69
2023-04-18T13:30:27.116Z,14.69
2023-04-18T13:31:30.080Z,14.63
2023-04-18T13:32:33.379Z,14.56
2023-04-18T13:34:08.695Z,14.38
2023-04-18T13:35:11.612Z,14.31
2023-04-18T13:36:14.916Z,14.31
2023-04-18T13:37:52.469Z,14.44
2023-04-18T13:38:55.294Z,14.56
2023-04-18T13:39:58.180Z,14.69
2023-04-18T13:41:32.860Z,14.81
2023-04-18T13:42:35.812Z,14.88
2023-04-18T13:43:38.644Z,14.88
2023-04-18T13:45:13.161Z,15.00
2023-04-18T13:46:16.192Z,15.00
2023-04-18T13:47:19.655Z,15.06
2023-04-18T13:48:54.790Z,15.19
2023-04-18T13:49:58.113Z,15.25
2023-04-18T13:51:01.206Z,15.25
2023-04-18T13:52:35.843Z,15.44
2023-04-18T13:53:38.747Z,15.50
2023-04-18T13:54:41.692Z,15.56
2023-04-18T13:56:16.334Z,15.69
2023-04-18T13:57:19.210Z,15.63
2023-04-18T13:58:22.077Z,15.50
2023-04-18T13:59:56.583Z,15.38
2023-04-18T14:00:11.191Z,15.38
2023-04-18T14:01:14.208Z,15.38
2023-04-18T14:02:17.450Z,15.31
2023-04-18T14:03:54.252Z,15.31
2023-04-18T14:04:59.343Z,15.38
2023-04-18T14:06:02.814Z,15.44
2023-04-18T14:07:37.678Z,15.44
2023-04-18T14:08:40.671Z,15.44
2023-04-18T14:09:43.815Z,15.38
2023-04-18T14:11:20.337Z,15.13
2023-04-18T14:12:23.136Z,15.00
2023-04-18T14:13:26.069Z,14.88
2023-04-18T14:15:00.803Z,14.63
2023-04-18T14:16:03.739Z,14.56
2023-04-18T14:17:07.449Z,14.50
2023-04-18T14:18:42.464Z,14.50
2023-04-18T14:19:45.267Z,14.63
2023-04-18T14:20:48.335Z,14.69
2023-04-18T14:22:22.959Z,14.94
2023-04-18T14:23:28.089Z,15.00
2023-04-18T14:24:31.059Z,15.06
2023-04-18T14:26:05.807Z,15.13
2023-04-18T14:27:08.651Z,15.25
2023-04-18T14:28:11.602Z,15.31
2023-04-18T14:29:46.246Z,15.38
2023-04-18T14:30:49.449Z,15.56
2023-04-18T14:31:52.575Z,15.63
2023-04-18T14:33:27.271Z,15.69
2023-04-18T14:34:31.197Z,15.75
2023-04-18T14:35:36.102Z,15.81
2023-04-18T14:37:10.744Z,15.88
2023-04-18T14:38:15.030Z,15.94
2023-04-18T14:39:17.935Z,16.06
2023-04-18T14:40:53.222Z,16.13
2023-04-18T14:41:56.204Z,16.13
2023-04-18T14:42:59.133Z,16.19
2023-04-18T14:44:33.892Z,16.19
2023-04-18T14:45:36.836Z,16.00
2023-04-18T14:46:40.382Z,15.88
2023-04-18T14:48:15.485Z,15.81
2023-04-18T14:49:18.536Z,15.69
2023-04-18T14:50:21.390Z,15.56
2023-04-18T14:51:56.029Z,15.44
2023-04-18T14:52:58.933Z,15.31
2023-04-18T14:54:01.739Z,15.25
2023-04-18T14:55:39.269Z,15.19
2023-04-18T14:56:42.223Z,15.19
2023-04-18T14:57:45.231Z,15.25
2023-04-18T14:59:20.427Z,15.31
2023-04-18T15:01:14.776Z,15.44
2023-04-18T15:02:18.139Z,15.44
2023-04-18T15:03:55.214Z,15.44
2023-04-18T15:05:00.815Z,15.63
2023-04-18T15:06:03.859Z,15.69
2023-04-18T15:07:38.435Z,15.81
2023-04-18T15:08:41.417Z,15.88
2023-04-18T15:09:44.163Z,15.81
2023-04-18T15:11:19.039Z,15.69
2023-04-18T15:12:22.100Z,15.63
2023-04-18T15:13:24.939Z,15.50
2023-04-18T15:14:59.733Z,15.38
2023-04-18T15:16:02.677Z,15.38
2023-04-18T15:17:06.073Z,15.38
2023-04-18T15:18:40.888Z,15.44
2023-04-18T15:19:43.704Z,15.50
2023-04-18T15:20:46.544Z,15.56
2023-04-18T15:22:21.039Z,15.75
2023-04-18T15:23:23.988Z,15.81
2023-04-18T15:24:26.877Z,15.75
2023-04-18T15:26:01.610Z,15.75
2023-04-18T15:27:07.201Z,15.63
2023-04-18T15:28:10.070Z,15.56
2023-04-18T15:29:44.848Z,15.38
2023-04-18T15:30:47.672Z,15.31
2023-04-18T15:31:50.942Z,15.31
2023-04-18T15:33:26.389Z,15.31
2023-04-18T15:34:29.311Z,15.38
2023-04-18T15:35:32.236Z,15.50
2023-04-18T15:37:06.791Z,15.63
2023-04-18T15:38:09.673Z,15.75
2023-04-18T15:39:13.756Z,15.88
2023-04-18T15:40:48.547Z,15.88
2023-04-18T15:41:51.424Z,15.88
2023-04-18T15:42:54.397Z,15.75
2023-04-18T15:44:29.059Z,15.69
2023-04-18T15:45:31.998Z,15.63
2023-04-18T15:46:35.315Z,15.69
2023-04-18T15:48:10.342Z,15.63
2023-04-18T15:49:13.430Z,15.63
2023-04-18T15:50:16.621Z,15.56
2023-04-18T15:51:51.927Z,15.50
2023-04-18T15:52:54.878Z,15.50
2023-04-18T15:53:57.667Z,15.44
2023-04-18T15:55:32.729Z,15.31
2023-04-18T15:56:35.485Z,15.31
2023-04-18T15:57:38.470Z,15.31
2023-04-18T15:59:13.125Z,15.19
2023-04-18T16:01:15.160Z,15.19
2023-04-18T16:02:21.126Z,15.19
2023-04-18T16:03:57.969Z,15.19
2023-04-18T16:05:40.827Z,15.13
2023-04-18T16:06:43.905Z,15.06
2023-04-18T16:07:46.902Z,15.00
2023-04-18T16:09:21.579Z,14.94
2023-04-18T16:10:24.598Z,14.88
2023-04-18T16:11:27.542Z,14.88
2023-04-18T16:13:02.167Z,14.94
2023-04-18T16:14:05.011Z,15.00